createdAt,value
2019-02-23T00:00:18.811Z,2.2
2019-02-23T00:02:18.465Z,2.2
2019-02-23T00:04:19.087Z,1.7
2019-02-23T00:06:29.221Z,2.3
2019-02-23T00:08:18.805Z,3.1
2019-02-23T00:10:18.876Z,1.9
2019-02-23T00:12:18.530Z,2.2
2019-02-23T00:14:19.176Z,2.3
2019-02-23T00:16:18.490Z,2.3
2019-02-23T00:18:19.195Z,2.3
2019-02-23T00:20:18.842Z,2.5
2019-02-23T00:22:18.475Z,1.8
2019-02-23T00:24:19.114Z,2.3
2019-02-23T00:26:19.392Z,2.1
2019-02-23T00:28:19.001Z,2.4
2019-02-23T00:30:18.613Z,2.5
2019-02-23T00:32:19.279Z,2.4
2019-02-23T00:34:18.918Z,2.9
2019-02-23T00:36:18.750Z,2.3
2019-02-23T00:38:19.373Z,2.2
2019-02-23T00:40:18.531Z,2.7
2019-02-23T00:42:19.166Z,2.5
2019-02-23T00:44:18.790Z,2.6
2019-02-23T00:46:19.094Z,2.1
2019-02-23T00:48:18.725Z,2.6
2019-02-23T00:50:19.393Z,2.7
2019-02-23T00:52:19.399Z,2.2
2019-02-23T00:54:19.024Z,4.2
2019-02-23T00:56:18.503Z,2.5
2019-02-23T00:58:19.128Z,2.5
2019-02-23T01:00:18.775Z,2.5
2019-02-23T01:02:19.391Z,2.3
2019-02-23T01:04:19.031Z,2.2
2019-02-23T01:06:18.867Z,2.1
2019-02-23T01:08:18.510Z,2.3
2019-02-23T01:10:19.526Z,2.4
2019-02-23T01:12:19.066Z,2.4
2019-02-23T01:14:18.699Z,2.6
2019-02-23T01:16:18.974Z,3.7
2019-02-23T01:18:18.663Z,1.7
2019-02-23T01:20:19.292Z,3
2019-02-23T01:22:18.929Z,2.8
2019-02-23T01:24:18.562Z,2.4
2019-02-23T01:26:18.857Z,3.1
2019-02-23T01:28:18.486Z,1.9
2019-02-23T01:30:19.136Z,2.4
2019-02-23T01:32:18.774Z,2.4
2019-02-23T01:34:19.388Z,2
2019-02-23T01:36:19.384Z,1.9
2019-02-23T01:38:19.004Z,2.8
2019-02-23T01:40:19.158Z,2.9
2019-02-23T01:42:18.788Z,2.8
2019-02-23T01:44:19.406Z,1.6
2019-02-23T01:46:19.358Z,2.8
2019-02-23T01:48:18.983Z,3.3
2019-02-23T01:50:18.655Z,2.4
2019-02-23T01:52:19.327Z,2.9
2019-02-23T01:54:18.958Z,2.7
2019-02-23T01:56:19.045Z,3.5
2019-02-23T01:58:18.705Z,3.2
2019-02-23T02:00:18.445Z,2.8
2019-02-23T02:02:19.078Z,2.1
2019-02-23T02:04:18.692Z,3.2
2019-02-23T02:06:19.011Z,1.8
2019-02-23T02:08:18.649Z,2.8
2019-02-23T02:10:18.773Z,3.6
2019-02-23T02:12:19.396Z,3.1
2019-02-23T02:14:19.010Z,3.1
2019-02-23T02:16:19.326Z,3.2
2019-02-23T02:18:19.029Z,2.9
2019-02-23T02:20:18.657Z,2.4
2019-02-23T02:22:19.254Z,2.6
2019-02-23T02:24:18.863Z,2.7
2019-02-23T02:26:18.730Z,3.5
2019-02-23T02:28:19.349Z,2.5
2019-02-23T02:30:18.978Z,2.9
2019-02-23T02:32:18.591Z,2.8
2019-02-23T02:34:19.229Z,3.5
2019-02-23T02:36:19.020Z,2.5
2019-02-23T02:38:18.676Z,3.2
2019-02-23T02:40:18.919Z,4.3
2019-02-23T02:42:18.533Z,2.4
2019-02-23T02:44:19.153Z,3.1
2019-02-23T02:46:18.548Z,2.5
2019-02-23T02:48:19.180Z,3.5
2019-02-23T02:50:24.103Z,2.9
2019-02-23T02:52:18.533Z,3.4
2019-02-23T02:54:19.151Z,3.3
2019-02-23T02:56:18.528Z,4.2
2019-02-23T02:58:19.159Z,2.6
2019-02-23T03:00:18.940Z,3.6
2019-02-23T03:02:18.589Z,3.3
2019-02-23T03:04:19.209Z,4.3
2019-02-23T03:06:19.367Z,2.8
2019-02-23T03:08:18.993Z,3.6
2019-02-23T03:10:19.069Z,2.9
2019-02-23T03:12:18.691Z,3.1
2019-02-23T03:14:19.410Z,3.7
2019-02-23T03:16:19.260Z,3.8
2019-02-23T03:18:19.030Z,3.8
2019-02-23T03:20:18.663Z,3.9
2019-02-23T03:22:19.288Z,3.3
2019-02-23T03:24:18.925Z,2.9
2019-02-23T03:26:18.732Z,3.5
2019-02-23T03:28:19.368Z,3.4
2019-02-23T03:30:19.083Z,3.6
2019-02-23T03:32:18.708Z,3.5
2019-02-23T03:34:19.363Z,3.8
2019-02-23T03:36:19.278Z,4.2
2019-02-23T03:38:18.892Z,3.9
2019-02-23T03:40:18.998Z,3.6
2019-02-23T03:42:18.624Z,4.8
2019-02-23T03:44:19.262Z,3.2
2019-02-23T03:46:19.157Z,3.2
2019-02-23T03:48:18.791Z,3.5
2019-02-23T03:50:19.430Z,3.3
2019-02-23T03:52:19.074Z,3.9
2019-02-23T03:54:18.718Z,3.6
2019-02-23T03:56:19.029Z,3.6
2019-02-23T03:58:18.660Z,3.5
2019-02-23T04:00:19.298Z,4
2019-02-23T04:02:18.924Z,3
2019-02-23T04:04:18.548Z,4.1
2019-02-23T04:06:18.780Z,3.3
2019-02-23T04:08:19.396Z,4.2
2019-02-23T04:10:18.544Z,5.5
2019-02-23T04:12:19.181Z,4
2019-02-23T04:14:18.857Z,4.2
2019-02-23T04:16:18.671Z,4.6
2019-02-23T04:18:19.366Z,4.3
2019-02-23T04:20:19.095Z,4.9
2019-02-23T04:22:19.419Z,4.4
2019-02-23T04:24:19.019Z,3.4
2019-02-23T04:26:19.365Z,4.9
2019-02-23T04:28:19.024Z,4.5
2019-02-23T04:30:18.671Z,4.4
2019-02-23T04:32:19.304Z,4.7
2019-02-23T04:34:18.958Z,4.6
2019-02-23T04:36:18.797Z,5.2
2019-02-23T04:38:18.448Z,3.4
2019-02-23T04:40:18.590Z,4.4
2019-02-23T04:42:19.213Z,4.3
2019-02-23T04:44:18.850Z,5
2019-02-23T04:46:19.134Z,4.1
2019-02-23T04:48:18.757Z,4.3
2019-02-23T04:50:19.423Z,4.5
2019-02-23T04:52:19.089Z,4.7
2019-02-23T04:54:18.705Z,3.9
2019-02-23T04:56:19.039Z,3.6
2019-02-23T04:58:18.657Z,4.4
2019-02-23T05:00:19.281Z,4.3
2019-02-23T05:02:18.965Z,4.6
2019-02-23T05:04:18.586Z,4.5
2019-02-23T05:06:18.431Z,4.7
2019-02-23T05:08:19.048Z,4.1
2019-02-23T05:10:19.267Z,4
2019-02-23T05:12:18.893Z,3.9
2019-02-23T05:14:18.514Z,4.3
2019-02-23T05:16:18.825Z,3.7
2019-02-23T05:18:18.559Z,3.9
2019-02-23T05:20:19.210Z,3.4
2019-02-23T05:22:18.835Z,4.1
2019-02-23T05:24:18.496Z,4.4
2019-02-23T05:26:18.940Z,3.8
2019-02-23T05:28:18.606Z,4.1
2019-02-23T05:30:19.284Z,4.3
2019-02-23T05:32:18.934Z,5.2
2019-02-23T05:34:18.593Z,4.6
2019-02-23T05:36:18.931Z,4.5
2019-02-23T05:38:18.598Z,4.5
2019-02-23T05:40:18.708Z,4.3
2019-02-23T05:42:19.349Z,4.8
2019-02-23T05:44:18.979Z,4.6
2019-02-23T05:46:18.733Z,3.7
2019-02-23T05:48:19.353Z,5.2
2019-02-23T05:50:18.975Z,4.4
2019-02-23T05:52:18.646Z,3.9
2019-02-23T05:54:19.274Z,4.9
2019-02-23T05:56:19.095Z,4.9
2019-02-23T05:58:18.713Z,3.5
2019-02-23T06:00:19.373Z,5.5
2019-02-23T06:02:19.006Z,3.5
2019-02-23T06:04:18.657Z,4.4
2019-02-23T06:06:18.978Z,4.5
2019-02-23T06:08:18.595Z,5.7
2019-02-23T06:10:18.684Z,5.1
2019-02-23T06:12:19.312Z,4.4
2019-02-23T06:14:19.039Z,4
2019-02-23T06:16:18.891Z,4.1
2019-02-23T06:18:18.594Z,4.9
2019-02-23T06:20:19.285Z,4.2
2019-02-23T06:22:18.960Z,5
2019-02-23T06:24:18.588Z,4.5
2019-02-23T06:26:19.021Z,4.2
2019-02-23T06:28:18.657Z,4
2019-02-23T06:30:19.259Z,4.3
2019-02-23T06:32:18.879Z,5.4
2019-02-23T06:34:18.489Z,4.7
2019-02-23T06:36:19.405Z,5.3
2019-02-23T06:38:19.057Z,4.4
2019-02-23T06:40:19.204Z,4.5
2019-02-23T06:42:18.962Z,4
2019-02-23T06:44:18.601Z,4.9
2019-02-23T06:46:18.927Z,5.4
2019-02-23T06:48:19.913Z,5.5
2019-02-23T06:50:18.740Z,5.3
2019-02-23T06:52:19.401Z,5
2019-02-23T06:54:19.070Z,5.7
2019-02-23T06:56:19.395Z,4
2019-02-23T06:58:19.019Z,5.9
2019-02-23T07:00:18.648Z,5.4
2019-02-23T07:02:19.314Z,4.7
2019-02-23T07:04:18.957Z,4.9
2019-02-23T07:06:18.823Z,6.2
2019-02-23T07:08:18.460Z,5.6
2019-02-23T07:10:18.608Z,5.9
2019-02-23T07:12:19.212Z,5.1
2019-02-23T07:14:18.816Z,3.8
2019-02-23T07:16:19.083Z,4.6
2019-02-23T07:18:18.774Z,4.8
2019-02-23T07:20:19.426Z,4
2019-02-23T07:22:18.784Z,5.2
2019-02-23T07:24:19.425Z,5.2
2019-02-23T07:26:19.402Z,5.4
2019-02-23T07:28:19.029Z,4.4
2019-02-23T07:30:18.631Z,4.7
2019-02-23T07:32:19.246Z,4.9
2019-02-23T07:34:18.845Z,5.7
2019-02-23T07:36:19.375Z,5.2
2019-02-23T07:38:19.001Z,5.4
2019-02-23T07:40:19.152Z,5.5
2019-02-23T07:42:18.797Z,4.9
2019-02-23T07:44:18.452Z,4.9
2019-02-23T07:46:19.059Z,5.8
2019-02-23T07:48:18.679Z,5
2019-02-23T07:50:19.347Z,4.4
2019-02-23T07:52:25.908Z,4.4
2019-02-23T07:54:19.410Z,6.3
2019-02-23T07:56:19.300Z,5.1
2019-02-23T07:58:19.039Z,4.4
2019-02-23T08:00:18.666Z,4.7
2019-02-23T08:02:19.312Z,4.8
2019-02-23T08:04:18.965Z,5.5
2019-02-23T08:06:18.456Z,6.9
2019-02-23T08:08:19.091Z,5.3
2019-02-23T08:10:19.191Z,5.2
2019-02-23T08:12:18.813Z,6.2
2019-02-23T08:14:18.455Z,5.8
2019-02-23T08:16:19.023Z,5.8
2019-02-23T08:18:18.712Z,5.3
2019-02-23T08:20:19.469Z,4
2019-02-23T08:22:18.993Z,4.9
2019-02-23T08:24:18.593Z,6
2019-02-23T08:26:19.111Z,5.5
2019-02-23T08:28:18.747Z,5.2
2019-02-23T08:30:19.365Z,5.5
2019-02-23T08:32:18.974Z,5.8
2019-02-23T08:34:18.574Z,5.5
2019-02-23T08:36:18.444Z,5.1
2019-02-23T08:38:19.089Z,4.7
2019-02-23T08:40:19.204Z,5
2019-02-23T08:42:18.840Z,5.1
2019-02-23T08:44:18.494Z,4.9
2019-02-23T08:46:18.793Z,5.8
2019-02-23T08:48:19.418Z,5
2019-02-23T08:50:19.174Z,5.4
2019-02-23T08:52:18.796Z,5.3
2019-02-23T08:54:18.414Z,5.2
2019-02-23T08:56:19.042Z,4.6
2019-02-23T08:58:18.659Z,4.8
2019-02-23T09:00:19.326Z,5.2
2019-02-23T09:02:18.980Z,5.1
2019-02-23T09:04:18.597Z,4.6
2019-02-23T09:06:19.155Z,4.8
2019-02-23T09:08:18.792Z,3.7
2019-02-23T09:10:18.914Z,6.9
2019-02-23T09:12:18.556Z,4.6
2019-02-23T09:14:19.174Z,5
2019-02-23T09:16:19.278Z,4.9
2019-02-23T09:18:19.051Z,4.5
2019-02-23T09:20:28.495Z,4.8
2019-02-23T09:22:19.271Z,4.9
2019-02-23T09:24:18.908Z,3.7
2019-02-23T09:26:19.167Z,3.8
2019-02-23T09:28:18.778Z,4.5
2019-02-23T09:30:19.422Z,5.3
2019-02-23T09:32:19.072Z,4.2
2019-02-23T09:34:18.722Z,5.9
2019-02-23T09:36:18.575Z,5
2019-02-23T09:38:19.212Z,4.7
2019-02-23T09:40:19.323Z,5.2
2019-02-23T09:42:18.919Z,4.8
2019-02-23T09:44:18.539Z,4.5
2019-02-23T09:46:18.819Z,5
2019-02-23T09:48:18.439Z,4.9
2019-02-23T09:50:19.073Z,4.9
2019-02-23T09:52:18.709Z,5.1
2019-02-23T09:54:19.357Z,5.8
2019-02-23T09:56:18.845Z,4.5
2019-02-23T09:58:18.508Z,4
2019-02-23T10:00:19.130Z,5.6
2019-02-23T10:02:18.764Z,3.3
2019-02-23T10:04:19.390Z,4.6
2019-02-23T10:06:18.770Z,4.7
2019-02-23T10:08:19.422Z,4.5
2019-02-23T10:10:18.584Z,3.7
2019-02-23T10:12:19.241Z,4.4
2019-02-23T10:14:18.864Z,5.3
2019-02-23T10:16:19.183Z,4.7
2019-02-23T10:18:18.873Z,5.1
2019-02-23T10:20:18.500Z,4.7
2019-02-23T10:22:19.171Z,5.1
2019-02-23T10:24:18.832Z,5.3
2019-02-23T10:26:18.775Z,3.9
2019-02-23T10:28:19.430Z,5.3
2019-02-23T10:30:19.093Z,5.1
2019-02-23T10:32:18.734Z,4.7
2019-02-23T10:34:19.400Z,4.5
2019-02-23T10:36:18.439Z,4.5
2019-02-23T10:38:19.100Z,3.7
2019-02-23T10:40:19.227Z,4.4
2019-02-23T10:42:18.691Z,4.6
2019-02-23T10:44:19.292Z,5.1
2019-02-23T10:46:18.966Z,4.4
2019-02-23T10:48:18.602Z,4.6
2019-02-23T10:50:19.230Z,5.5
2019-02-23T10:52:18.864Z,4.6
2019-02-23T10:54:18.505Z,5
2019-02-23T10:56:18.779Z,5
2019-02-23T10:58:19.403Z,4.6
2019-02-23T11:00:19.040Z,5.4
2019-02-23T11:02:18.664Z,4.7
2019-02-23T11:04:19.293Z,5.2
2019-02-23T11:06:19.142Z,5.3
2019-02-23T11:08:18.768Z,4
2019-02-23T11:10:18.849Z,4.2
2019-02-23T11:12:18.480Z,4.1
2019-02-23T11:14:19.101Z,4
2019-02-23T11:16:19.107Z,4.4
2019-02-23T11:18:18.832Z,4.5
2019-02-23T11:20:18.514Z,4.7
2019-02-23T11:22:19.122Z,3.5
2019-02-23T11:24:18.759Z,5.6
2019-02-23T11:26:19.097Z,4.3
2019-02-23T11:28:18.734Z,4.8
2019-02-23T11:30:19.409Z,3.5
2019-02-23T11:32:19.045Z,3.8
2019-02-23T11:34:18.712Z,3.9
2019-02-23T11:36:18.556Z,4.5
2019-02-23T11:38:19.197Z,3.9
2019-02-23T11:40:19.327Z,4.5
2019-02-23T11:42:18.977Z,4.3
2019-02-23T11:44:18.618Z,3.3
2019-02-23T11:46:18.892Z,4.3
2019-02-23T11:48:18.534Z,4.4
2019-02-23T11:50:19.228Z,4
2019-02-23T11:52:18.898Z,4.6
2019-02-23T11:54:18.558Z,4.2
2019-02-23T11:56:19.137Z,4.3
2019-02-23T11:58:18.823Z,5.1
2019-02-23T12:00:18.499Z,4.1
2019-02-23T12:02:19.143Z,4.5
2019-02-23T12:04:18.790Z,3.4
2019-02-23T12:06:18.614Z,4.2
2019-02-23T12:08:19.270Z,5.2
2019-02-23T12:10:19.346Z,3.7
2019-02-23T12:12:18.984Z,4
2019-02-23T12:14:18.659Z,3.8
2019-02-23T12:16:18.998Z,4.1
2019-02-23T12:18:18.745Z,4.2
2019-02-23T12:20:19.421Z,4.9
2019-02-23T12:22:19.088Z,4.1
2019-02-23T12:24:18.757Z,2.5
2019-02-23T12:26:19.317Z,4.3
2019-02-23T12:28:18.941Z,3.8
2019-02-23T12:30:18.610Z,4.4
2019-02-23T12:32:19.241Z,4.8
2019-02-23T12:34:18.886Z,4.2
2019-02-23T12:36:19.309Z,4.7
2019-02-23T12:38:18.956Z,5.1
2019-02-23T12:40:19.059Z,4
2019-02-23T12:42:18.749Z,3.9
2019-02-23T12:44:19.381Z,3.7
2019-02-23T12:46:18.822Z,4.6
2019-02-23T12:48:18.486Z,4.5
2019-02-23T12:50:19.166Z,4.4
2019-02-23T12:52:18.818Z,4.4
2019-02-23T12:54:18.448Z,4.2
2019-02-23T12:56:19.132Z,4
2019-02-23T12:58:18.790Z,3.7
2019-02-23T13:00:19.440Z,4.1
2019-02-23T13:02:19.112Z,4.5
2019-02-23T13:04:18.770Z,4.2
2019-02-23T13:06:19.178Z,3.9
2019-02-23T13:08:18.826Z,3.4
2019-02-23T13:10:19.167Z,3.5
2019-02-23T13:12:18.842Z,3.4
2019-02-23T13:14:18.501Z,4
2019-02-23T13:16:19.360Z,4.8
2019-02-23T13:18:19.102Z,4.6
2019-02-23T13:20:18.767Z,4.8
2019-02-23T13:22:19.461Z,4.1
2019-02-23T13:24:27.661Z,3.6
2019-02-23T13:26:18.473Z,3.7
2019-02-23T13:28:19.150Z,3.7
2019-02-23T13:30:18.799Z,3.7
2019-02-23T13:32:18.464Z,4.5
2019-02-23T13:34:19.142Z,3.3
2019-02-23T13:36:19.183Z,3.3
2019-02-23T13:38:18.908Z,3.6
2019-02-23T13:40:19.064Z,3.8
2019-02-23T13:42:18.721Z,3.9
2019-02-23T13:44:19.566Z,3.7
2019-02-23T13:46:19.280Z,3.8
2019-02-23T13:48:21.192Z,3.9
2019-02-23T13:50:19.234Z,4.1
2019-02-23T13:52:18.910Z,3.6
2019-02-23T13:54:18.564Z,4.1
2019-02-23T13:56:18.457Z,4.7
2019-02-23T13:58:19.149Z,3.2
2019-02-23T14:00:18.801Z,4.1
2019-02-23T14:02:18.474Z,3.2
2019-02-23T14:04:19.138Z,2.7
2019-02-23T14:06:19.095Z,3.1
2019-02-23T14:08:18.735Z,3.5
2019-02-23T14:10:18.851Z,3.4
2019-02-23T14:12:18.527Z,3.9
2019-02-23T14:14:19.189Z,4.1
2019-02-23T14:16:18.871Z,3.2
2019-02-23T14:18:18.588Z,3.4
2019-02-23T14:20:19.281Z,3
2019-02-23T14:22:18.943Z,3.7
2019-02-23T14:24:18.642Z,3.4
2019-02-23T14:26:18.496Z,4
2019-02-23T14:28:19.163Z,4.1
2019-02-23T14:30:18.852Z,3
2019-02-23T14:32:18.476Z,3.9
2019-02-23T14:34:19.147Z,3.9
2019-02-23T14:36:19.482Z,2.7
2019-02-23T14:38:19.182Z,2.8
2019-02-23T14:40:19.393Z,3.5
2019-02-23T14:42:19.153Z,3.2
2019-02-23T14:44:18.904Z,3.6
2019-02-23T14:46:20.855Z,3.1
2019-02-23T14:48:18.758Z,3.9
2019-02-23T14:50:19.518Z,3.3
2019-02-23T14:52:19.204Z,3.9
2019-02-23T14:54:18.919Z,3.5
2019-02-23T14:56:19.336Z,3.7
2019-02-23T14:58:19.031Z,4.2
2019-02-23T15:00:18.712Z,4.3
2019-02-23T15:02:19.360Z,3.5
2019-02-23T15:04:19.010Z,3.9
2019-02-23T15:06:19.327Z,4
2019-02-23T15:08:19.010Z,3.4
2019-02-23T15:10:19.098Z,3.4
2019-02-23T15:12:18.721Z,4.4
2019-02-23T15:14:19.362Z,3.8
2019-02-23T15:16:19.220Z,4.5
2019-02-23T15:18:18.949Z,3.9
2019-02-23T15:20:18.591Z,3.8
2019-02-23T15:22:19.245Z,4.5
2019-02-23T15:24:18.998Z,4.1
2019-02-23T15:26:19.354Z,4.4
2019-02-23T15:28:30.406Z,4.3
2019-02-23T15:30:18.625Z,4.7
2019-02-23T15:32:19.351Z,4.3
2019-02-23T15:34:18.983Z,4.1
2019-02-23T15:36:19.423Z,4.2
2019-02-23T15:38:19.107Z,4.2
2019-02-23T15:40:19.256Z,4.2
2019-02-23T15:42:19.040Z,4.1
2019-02-23T15:44:21.505Z,4.4
2019-02-23T15:46:19.262Z,4.1
2019-02-23T15:48:19.005Z,4.6
2019-02-23T15:50:18.768Z,3.8
2019-02-23T15:52:18.500Z,4
2019-02-23T15:54:19.267Z,4.4
2019-02-23T15:56:18.746Z,4
2019-02-23T15:58:19.400Z,4.7
2019-02-23T16:00:19.221Z,3.6
2019-02-23T16:02:18.909Z,4.8
2019-02-23T16:04:18.549Z,5.3
2019-02-23T16:06:19.409Z,4.7
2019-02-23T16:08:19.042Z,4.6
2019-02-23T16:10:19.145Z,4.5
2019-02-23T16:12:18.766Z,4.7
2019-02-23T16:14:19.440Z,5.1
2019-02-23T16:16:18.765Z,5.8
2019-02-23T16:18:18.514Z,6.4
2019-02-23T16:20:19.211Z,4.9
2019-02-23T16:22:18.938Z,4.5
2019-02-23T16:24:18.580Z,5.3
2019-02-23T16:26:19.418Z,4.2
2019-02-23T16:28:19.054Z,4.6
2019-02-23T16:30:18.721Z,4.8
2019-02-23T16:32:19.367Z,4.8
2019-02-23T16:34:19.008Z,7.1
2019-02-23T16:36:18.861Z,5.3
2019-02-23T16:38:18.489Z,4.6
2019-02-23T16:40:18.630Z,4.9
2019-02-23T16:42:19.263Z,5
2019-02-23T16:44:18.886Z,5.9
2019-02-23T16:46:19.363Z,4.6
2019-02-23T16:48:19.032Z,4.9
2019-02-23T16:50:18.738Z,5.3
2019-02-23T16:52:18.669Z,4.4
2019-02-23T16:54:19.305Z,4.9
2019-02-23T16:56:19.190Z,5.4
2019-02-23T16:58:18.818Z,5.1
2019-02-23T17:00:18.453Z,5.6
2019-02-23T17:02:19.085Z,5
2019-02-23T17:04:18.750Z,4.7
2019-02-23T17:06:19.158Z,5.2
2019-02-23T17:08:18.821Z,5.1
2019-02-23T17:10:18.973Z,6
2019-02-23T17:12:18.638Z,5.4
2019-02-23T17:14:19.289Z,5.3
2019-02-23T17:16:18.569Z,6
2019-02-23T17:18:19.318Z,5.4
2019-02-23T17:20:18.971Z,6.2
2019-02-23T17:22:18.617Z,6.2
2019-02-23T17:24:19.261Z,6.1
2019-02-23T17:26:18.552Z,6.1
2019-02-23T17:28:19.191Z,6.2
2019-02-23T17:30:18.861Z,7.3
2019-02-23T17:32:18.524Z,6
2019-02-23T17:34:19.145Z,7.5
2019-02-23T17:36:18.778Z,6.1
2019-02-23T17:38:19.419Z,6.4
2019-02-23T17:40:18.552Z,6
2019-02-23T17:42:27.638Z,6.2
2019-02-23T17:44:19.018Z,7.2
2019-02-23T17:46:18.956Z,6.6
2019-02-23T17:48:18.620Z,6.1
2019-02-23T17:50:19.308Z,7.1
2019-02-23T17:52:18.959Z,6.9
2019-02-23T17:54:18.593Z,5.9
2019-02-23T17:56:18.887Z,6.9
2019-02-23T17:58:18.560Z,6.9
2019-02-23T18:00:19.234Z,6.1
2019-02-23T18:02:18.895Z,6.7
2019-02-23T18:04:18.524Z,6
2019-02-23T18:06:18.439Z,5.4
2019-02-23T18:08:19.093Z,6.1
2019-02-23T18:10:19.226Z,6.4
2019-02-23T18:12:18.907Z,7.4
2019-02-23T18:14:18.555Z,6.4
2019-02-23T18:16:18.458Z,6.4
2019-02-23T18:18:19.149Z,7.1
2019-02-23T18:20:18.813Z,8.3
2019-02-23T18:22:18.451Z,8.6
2019-02-23T18:24:19.076Z,7.1
2019-02-23T18:26:20.884Z,8
2019-02-23T18:28:19.024Z,8.7
2019-02-23T18:30:18.685Z,8.1
2019-02-23T18:32:19.885Z,8.8
2019-02-23T18:34:18.556Z,7.1
2019-02-23T18:36:18.986Z,8.4
2019-02-23T18:38:18.648Z,7.3
2019-02-23T18:40:18.754Z,8.9
2019-02-23T18:42:19.379Z,8.3
2019-02-23T18:44:19.009Z,8.3
2019-02-23T18:46:19.356Z,8
2019-02-23T18:48:19.029Z,8.1
2019-02-23T18:50:18.654Z,8.6
2019-02-23T18:52:19.318Z,8.1
2019-02-23T18:54:18.958Z,8.4
2019-02-23T18:56:18.787Z,8.3
2019-02-23T18:58:18.447Z,8.4
2019-02-23T19:00:24.286Z,8.9
2019-02-23T19:02:19.231Z,8.1
2019-02-23T19:04:18.868Z,8.2
2019-02-23T19:06:19.207Z,9.1
2019-02-23T19:08:18.852Z,9.2
2019-02-23T19:10:18.973Z,10.4
2019-02-23T19:12:18.605Z,8.8
2019-02-23T19:14:19.269Z,7.5
2019-02-23T19:16:18.603Z,9.8
2019-02-23T19:18:19.333Z,8.2
2019-02-23T19:20:19.128Z,7.9
2019-02-23T19:22:18.767Z,7.6
2019-02-23T19:24:19.413Z,9
2019-02-23T19:26:18.673Z,8.3
2019-02-23T19:28:19.320Z,8.1
2019-02-23T19:30:18.953Z,9
2019-02-23T19:32:18.594Z,8.4
2019-02-23T19:34:19.235Z,7.3
2019-02-23T19:36:19.134Z,7.7
2019-02-23T19:38:18.817Z,8.2
2019-02-23T19:40:18.930Z,8.1
2019-02-23T19:42:18.554Z,6.8
2019-02-23T19:44:19.180Z,7.4
2019-02-23T19:46:18.521Z,8.2
2019-02-23T19:48:19.158Z,8.8
2019-02-23T19:50:18.847Z,8.6
2019-02-23T19:52:18.544Z,7.6
2019-02-23T19:54:19.182Z,9.2
2019-02-23T19:56:18.531Z,9
2019-02-23T19:58:19.170Z,7.3
2019-02-23T20:00:18.805Z,9.5
2019-02-23T20:02:18.488Z,8.4
2019-02-23T20:04:19.151Z,9
2019-02-23T20:06:18.664Z,9
2019-02-23T20:08:19.269Z,7.4
2019-02-23T20:10:19.409Z,8.5
2019-02-23T20:12:18.889Z,9.1
2019-02-23T20:14:18.544Z,8.8
2019-02-23T20:16:19.367Z,9.1
2019-02-23T20:18:19.074Z,9.1
2019-02-23T20:20:18.719Z,7.9
2019-02-23T20:22:19.384Z,8.7
2019-02-23T20:24:19.020Z,7.9
2019-02-23T20:26:19.349Z,7.9
2019-02-23T20:28:18.962Z,9
2019-02-23T20:30:18.584Z,9.2
2019-02-23T20:32:19.209Z,8.3
2019-02-23T20:34:18.860Z,9.8
2019-02-23T20:36:19.179Z,10.4
2019-02-23T20:38:18.804Z,7.7
2019-02-23T20:40:18.914Z,9.1
2019-02-23T20:42:18.545Z,8.9
2019-02-23T20:44:19.160Z,10.5
2019-02-23T20:46:19.179Z,10
2019-02-23T20:48:18.973Z,8.9
2019-02-23T20:50:18.701Z,9.6
2019-02-23T20:52:19.353Z,9
2019-02-23T20:54:19.098Z,9.9
2019-02-23T20:56:19.348Z,9.1
2019-02-23T20:58:18.958Z,10
2019-02-23T21:00:18.695Z,8.6
2019-02-23T21:02:19.310Z,10.3
2019-02-23T21:04:18.941Z,8.7
2019-02-23T21:06:19.382Z,8.8
2019-02-23T21:08:19.109Z,10.1
2019-02-23T21:10:19.364Z,8.8
2019-02-23T21:12:19.099Z,9.4
2019-02-23T21:14:18.731Z,8.4
2019-02-23T21:16:19.023Z,8.2
2019-02-23T21:18:18.731Z,9.3
2019-02-23T21:20:19.387Z,8.4
2019-02-23T21:22:19.417Z,8.8
2019-02-23T21:24:19.089Z,8.3
2019-02-23T21:26:18.557Z,9
2019-02-23T21:28:19.199Z,10
2019-02-23T21:30:18.821Z,8.2
2019-02-23T21:32:18.457Z,8.2
2019-02-23T21:34:19.090Z,9.4
2019-02-23T21:36:19.024Z,9.1
2019-02-23T21:38:18.692Z,10.1
2019-02-23T21:40:18.783Z,10.4
2019-02-23T21:42:18.783Z,9.2
2019-02-23T21:44:18.437Z,9.6
2019-02-23T21:46:18.754Z,10.2
2019-02-23T21:48:19.383Z,9.8
2019-02-23T21:50:19.017Z,9.8
2019-02-23T21:52:18.680Z,9.4
2019-02-23T21:54:19.315Z,9.7
2019-02-23T21:56:18.645Z,8.7
2019-02-23T21:58:19.262Z,10.4
2019-02-23T22:00:18.922Z,9.3
2019-02-23T22:02:18.555Z,9.3
2019-02-23T22:04:19.210Z,9.1
2019-02-23T22:06:18.716Z,9.9
2019-02-23T22:08:19.343Z,9.8
2019-02-23T22:10:18.504Z,10.5
2019-02-23T22:12:19.190Z,10.6
2019-02-23T22:14:18.832Z,11.1
2019-02-23T22:16:19.294Z,9.8
2019-02-23T22:18:19.040Z,9.9
2019-02-23T22:20:18.690Z,10.7
2019-02-23T22:22:19.362Z,10.4
2019-02-23T22:24:19.013Z,10.5
2019-02-23T22:26:19.321Z,8.6
2019-02-23T22:28:19.003Z,10.8
2019-02-23T22:30:18.663Z,9.9
2019-02-23T22:32:19.348Z,9.6
2019-02-23T22:34:18.998Z,8.5
2019-02-23T22:36:18.691Z,9.2
2019-02-23T22:38:19.338Z,9.9
2019-02-23T22:40:18.500Z,11.3
2019-02-23T22:42:19.147Z,9.3
2019-02-23T22:44:18.773Z,10
2019-02-23T22:46:18.575Z,10.2
2019-02-23T22:48:19.198Z,10.9
2019-02-23T22:50:18.821Z,10
2019-02-23T22:52:19.333Z,10.1
2019-02-23T22:54:18.946Z,10.9
2019-02-23T22:56:18.722Z,9.6
2019-02-23T22:58:19.352Z,10.2
2019-02-23T23:00:18.988Z,10.7
2019-02-23T23:02:18.645Z,9.9
2019-02-23T23:04:19.245Z,9.7
2019-02-23T23:06:19.090Z,11.5
2019-02-23T23:08:18.707Z,9.5
2019-02-23T23:10:18.782Z,9.6
2019-02-23T23:12:18.449Z,9.5
2019-02-23T23:14:19.084Z,9.3
2019-02-23T23:16:19.408Z,10.1
2019-02-23T23:18:19.124Z,8.9
2019-02-23T23:20:18.764Z,9.7
2019-02-23T23:22:19.448Z,9.4
2019-02-23T23:24:19.101Z,9.4
2019-02-23T23:26:18.779Z,9.9
2019-02-23T23:28:19.397Z,9.1
2019-02-23T23:30:19.016Z,10.6
2019-02-23T23:32:18.635Z,10.4
2019-02-23T23:34:19.252Z,9.2
2019-02-23T23:36:19.128Z,9.6
2019-02-23T23:38:18.740Z,9.1
2019-02-23T23:40:18.883Z,9.6
2019-02-23T23:42:18.510Z,9.6
2019-02-23T23:44:19.135Z,10.5
2019-02-23T23:46:19.093Z,10
2019-02-23T23:48:18.759Z,9.7
2019-02-23T23:50:19.390Z,7.9
2019-02-23T23:52:19.025Z,8.5
2019-02-23T23:54:18.677Z,9.4
2019-02-23T23:56:18.520Z,8.6
2019-02-23T23:58:19.135Z,10.1
